sensor_id;sensor_type;location;lat;lon;timestamp;pressure;altitude;pressure_sealevel;temperature;humidity
59825;BME280;45703;50.898;6.054;2024-03-07T00:01:35;100952.09;;;3.58;100.00
59825;BME280;45703;50.898;6.054;2024-03-07T00:04:00;100953.25;;;3.55;100.00
59825;BME280;45703;50.898;6.054;2024-03-07T00:06:26;100949.25;;;3.51;100.00
59825;BME280;45703;50.898;6.054;2024-03-07T00:08:51;100953.88;;;3.49;100.00
59825;BME280;45703;50.898;6.054;2024-03-07T00:11:17;100951.25;;;3.49;100.00
59825;BME280;45703;50.898;6.054;2024-03-07T00:13:42;100950.41;;;3.49;100.00
59825;BME280;45703;50.898;6.054;2024-03-07T00:16:08;100949.59;;;3.48;100.00
59825;BME280;45703;50.898;6.054;2024-03-07T00:18:35;100946.44;;;3.45;100.00
59825;BME280;45703;50.898;6.054;2024-03-07T00:21:02;100947.72;;;3.41;100.00
59825;BME280;45703;50.898;6.054;2024-03-07T00:23:28;100948.38;;;3.35;100.00
59825;BME280;45703;50.898;6.054;2024-03-07T00:25:53;100949.53;;;3.32;100.00
59825;BME280;45703;50.898;6.054;2024-03-07T00:28:19;100949.00;;;3.29;100.00
59825;BME280;45703;50.898;6.054;2024-03-07T00:30:44;100954.41;;;3.27;100.00
59825;BME280;45703;50.898;6.054;2024-03-07T00:33:11;100944.34;;;3.23;100.00
59825;BME280;45703;50.898;6.054;2024-03-07T00:35:37;100954.06;;;3.22;100.00
59825;BME280;45703;50.898;6.054;2024-03-07T00:38:03;100947.13;;;3.21;100.00
59825;BME280;45703;50.898;6.054;2024-03-07T00:40:29;100951.59;;;3.21;100.00
59825;BME280;45703;50.898;6.054;2024-03-07T00:42:54;100953.25;;;3.22;100.00
59825;BME280;45703;50.898;6.054;2024-03-07T00:45:20;100947.00;;;3.23;100.00
59825;BME280;45703;50.898;6.054;2024-03-07T00:47:45;100946.81;;;3.24;100.00
59825;BME280;45703;50.898;6.054;2024-03-07T00:50:12;100943.38;;;3.24;100.00
59825;BME280;45703;50.898;6.054;2024-03-07T00:52:38;100942.84;;;3.20;100.00
59825;BME280;45703;50.898;6.054;2024-03-07T00:55:04;100949.09;;;3.19;100.00
59825;BME280;45703;50.898;6.054;2024-03-07T00:57:29;100936.91;;;3.18;100.00
59825;BME280;45703;50.898;6.054;2024-03-07T00:59:55;100935.91;;;3.19;100.00
59825;BME280;45703;50.898;6.054;2024-03-07T01:02:21;100930.31;;;3.22;100.00
59825;BME280;45703;50.898;6.054;2024-03-07T01:04:47;100928.53;;;3.23;100.00
59825;BME280;45703;50.898;6.054;2024-03-07T01:07:13;100931.81;;;3.25;100.00
59825;BME280;45703;50.898;6.054;2024-03-07T01:09:39;100918.13;;;3.21;100.00
59825;BME280;45703;50.898;6.054;2024-03-07T01:12:04;100919.28;;;3.19;100.00
59825;BME280;45703;50.898;6.054;2024-03-07T01:14:31;100917.44;;;3.19;100.00
59825;BME280;45703;50.898;6.054;2024-03-07T01:16:56;100901.63;;;3.19;100.00
59825;BME280;45703;50.898;6.054;2024-03-07T01:19:22;100909.69;;;3.18;100.00
59825;BME280;45703;50.898;6.054;2024-03-07T01:21:48;100905.25;;;3.18;100.00
59825;BME280;45703;50.898;6.054;2024-03-07T01:24:13;100907.22;;;3.16;100.00
59825;BME280;45703;50.898;6.054;2024-03-07T01:26:43;100910.34;;;3.12;100.00
59825;BME280;45703;50.898;6.054;2024-03-07T01:29:09;100909.81;;;3.08;100.00
59825;BME280;45703;50.898;6.054;2024-03-07T01:31:34;100909.47;;;3.03;100.00
59825;BME280;45703;50.898;6.054;2024-03-07T01:33:59;100908.13;;;2.99;100.00
59825;BME280;45703;50.898;6.054;2024-03-07T01:36:25;100913.03;;;2.94;100.00
59825;BME280;45703;50.898;6.054;2024-03-07T01:38:50;100910.03;;;2.89;100.00
59825;BME280;45703;50.898;6.054;2024-03-07T01:41:16;100915.94;;;2.83;100.00
59825;BME280;45703;50.898;6.054;2024-03-07T01:43:42;100908.50;;;2.79;100.00
59825;BME280;45703;50.898;6.054;2024-03-07T01:46:08;100911.44;;;2.76;100.00
59825;BME280;45703;50.898;6.054;2024-03-07T01:48:35;100908.28;;;2.73;100.00
59825;BME280;45703;50.898;6.054;2024-03-07T01:51:01;100904.50;;;2.75;100.00
59825;BME280;45703;50.898;6.054;2024-03-07T01:53:30;100912.91;;;2.78;100.00
59825;BME280;45703;50.898;6.054;2024-03-07T01:55:56;100899.06;;;2.77;100.00
59825;BME280;45703;50.898;6.054;2024-03-07T01:58:24;100901.09;;;2.83;100.00
59825;BME280;45703;50.898;6.054;2024-03-07T02:00:49;100902.09;;;2.82;100.00
59825;BME280;45703;50.898;6.054;2024-03-07T02:03:15;100897.31;;;2.85;100.00
59825;BME280;45703;50.898;6.054;2024-03-07T02:05:41;100894.53;;;2.86;100.00
59825;BME280;45703;50.898;6.054;2024-03-07T02:08:07;100892.34;;;2.82;100.00
59825;BME280;45703;50.898;6.054;2024-03-07T02:10:32;100892.03;;;2.85;100.00
59825;BME280;45703;50.898;6.054;2024-03-07T02:12:57;100876.41;;;2.83;100.00
59825;BME280;45703;50.898;6.054;2024-03-07T02:15:23;100882.34;;;2.85;100.00
59825;BME280;45703;50.898;6.054;2024-03-07T02:17:48;100877.38;;;2.83;100.00
59825;BME280;45703;50.898;6.054;2024-03-07T02:20:14;100871.25;;;2.82;100.00
59825;BME280;45703;50.898;6.054;2024-03-07T02:22:41;100871.25;;;2.82;100.00
59825;BME280;45703;50.898;6.054;2024-03-07T02:25:07;100867.81;;;2.82;100.00
59825;BME280;45703;50.898;6.054;2024-03-07T02:27:35;100859.91;;;2.82;100.00
59825;BME280;45703;50.898;6.054;2024-03-07T02:30:01;100851.28;;;2.79;100.00
59825;BME280;45703;50.898;6.054;2024-03-07T02:32:29;100851.00;;;2.83;100.00
59825;BME280;45703;50.898;6.054;2024-03-07T02:34:54;100855.97;;;2.85;100.00
59825;BME280;45703;50.898;6.054;2024-03-07T02:37:20;100856.28;;;2.83;100.00
59825;BME280;45703;50.898;6.054;2024-03-07T02:39:45;100853.25;;;2.78;100.00
59825;BME280;45703;50.898;6.054;2024-03-07T02:42:11;100848.31;;;2.75;100.00
59825;BME280;45703;50.898;6.054;2024-03-07T02:44:36;100845.00;;;2.73;100.00
59825;BME280;45703;50.898;6.054;2024-03-07T02:47:04;100851.25;;;2.72;100.00
59825;BME280;45703;50.898;6.054;2024-03-07T02:49:30;100861.44;;;2.67;100.00
59825;BME280;45703;50.898;6.054;2024-03-07T02:51:55;100869.00;;;2.62;100.00
59825;BME280;45703;50.898;6.054;2024-03-07T02:54:20;100857.09;;;2.58;100.00
59825;BME280;45703;50.898;6.054;2024-03-07T02:56:46;100848.69;;;2.54;100.00
59825;BME280;45703;50.898;6.054;2024-03-07T02:59:12;100852.16;;;2.55;100.00
59825;BME280;45703;50.898;6.054;2024-03-07T03:01:37;100853.50;;;2.59;100.00
59825;BME280;45703;50.898;6.054;2024-03-07T03:04:02;100856.00;;;2.60;100.00
59825;BME280;45703;50.898;6.054;2024-03-07T03:06:28;100849.56;;;2.63;100.00
59825;BME280;45703;50.898;6.054;2024-03-07T03:08:53;100859.13;;;2.64;100.00
59825;BME280;45703;50.898;6.054;2024-03-07T03:11:20;100848.44;;;2.65;100.00
59825;BME280;45703;50.898;6.054;2024-03-07T03:13:45;100856.47;;;2.64;100.00
59825;BME280;45703;50.898;6.054;2024-03-07T03:16:13;100856.47;;;2.64;100.00
59825;BME280;45703;50.898;6.054;2024-03-07T03:18:38;100851.53;;;2.61;100.00
59825;BME280;45703;50.898;6.054;2024-03-07T03:21:04;100842.63;;;2.62;100.00
59825;BME280;45703;50.898;6.054;2024-03-07T03:23:29;100842.94;;;2.59;100.00
59825;BME280;45703;50.898;6.054;2024-03-07T03:25:55;100844.09;;;2.56;100.00
59825;BME280;45703;50.898;6.054;2024-03-07T03:28:24;100845.22;;;2.54;100.00
59825;BME280;45703;50.898;6.054;2024-03-07T03:30:50;100843.22;;;2.48;100.00
59825;BME280;45703;50.898;6.054;2024-03-07T03:33:16;100837.78;;;2.49;100.00
59825;BME280;45703;50.898;6.054;2024-03-07T03:35:43;100838.25;;;2.45;100.00
59825;BME280;45703;50.898;6.054;2024-03-07T03:38:09;100836.06;;;2.40;100.00
59825;BME280;45703;50.898;6.054;2024-03-07T03:40:35;100834.06;;;2.34;100.00
59825;BME280;45703;50.898;6.054;2024-03-07T03:43:00;100834.69;;;2.28;100.00
59825;BME280;45703;50.898;6.054;2024-03-07T03:45:26;100833.66;;;2.21;100.00
59825;BME280;45703;50.898;6.054;2024-03-07T03:47:52;100831.47;;;2.17;100.00
59825;BME280;45703;50.898;6.054;2024-03-07T03:50:17;100833.09;;;2.18;100.00
59825;BME280;45703;50.898;6.054;2024-03-07T03:52:43;100832.44;;;2.16;100.00
59825;BME280;45703;50.898;6.054;2024-03-07T03:55:09;100830.97;;;2.13;100.00
59825;BME280;45703;50.898;6.054;2024-03-07T03:57:35;100832.25;;;2.09;100.00
59825;BME280;45703;50.898;6.054;2024-03-07T04:00:01;100833.66;;;2.04;100.00
59825;BME280;45703;50.898;6.054;2024-03-07T04:02:33;100831.66;;;1.98;100.00
59825;BME280;45703;50.898;6.054;2024-03-07T04:04:58;100831.66;;;1.98;100.00
59825;BME280;45703;50.898;6.054;2024-03-07T04:07:25;100829.31;;;1.95;100.00
59825;BME280;45703;50.898;6.054;2024-03-07T04:09:50;100836.53;;;1.93;100.00
59825;BME280;45703;50.898;6.054;2024-03-07T04:12:15;100832.56;;;1.89;100.00
59825;BME280;45703;50.898;6.054;2024-03-07T04:14:42;100829.47;;;1.93;100.00
59825;BME280;45703;50.898;6.054;2024-03-07T04:17:09;100835.41;;;1.95;100.00
59825;BME280;45703;50.898;6.054;2024-03-07T04:19:39;100835.25;;;1.97;100.00
59825;BME280;45703;50.898;6.054;2024-03-07T04:22:05;100830.31;;;1.94;100.00
59825;BME280;45703;50.898;6.054;2024-03-07T04:24:36;100831.94;;;1.95;100.00
59825;BME280;45703;50.898;6.054;2024-03-07T04:27:03;100831.94;;;1.95;100.00
59825;BME280;45703;50.898;6.054;2024-03-07T04:29:32;100826.00;;;1.93;100.00
59825;BME280;45703;50.898;6.054;2024-03-07T04:31:58;100831.41;;;1.91;100.00
59825;BME280;45703;50.898;6.054;2024-03-07T04:34:24;100830.91;;;1.88;100.00
59825;BME280;45703;50.898;6.054;2024-03-07T04:36:50;100818.72;;;1.87;100.00
59825;BME280;45703;50.898;6.054;2024-03-07T04:39:15;100824.00;;;1.87;100.00
59825;BME280;45703;50.898;6.054;2024-03-07T04:41:53;100824.28;;;1.84;100.00
59825;BME280;45703;50.898;6.054;2024-03-07T04:44:19;100815.13;;;1.88;100.00
59825;BME280;45703;50.898;6.054;2024-03-07T04:46:48;100816.75;;;1.89;100.00
59825;BME280;45703;50.898;6.054;2024-03-07T04:49:15;100813.28;;;1.88;100.00
59825;BME280;45703;50.898;6.054;2024-03-07T04:51:40;100817.75;;;1.88;100.00
59825;BME280;45703;50.898;6.054;2024-03-07T04:54:06;100814.28;;;1.87;100.00
59825;BME280;45703;50.898;6.054;2024-03-07T04:56:31;100811.81;;;1.86;100.00
59825;BME280;45703;50.898;6.054;2024-03-07T04:58:57;100812.13;;;1.83;100.00
59825;BME280;45703;50.898;6.054;2024-03-07T05:01:22;100811.56;;;1.79;100.00
59825;BME280;45703;50.898;6.054;2024-03-07T05:03:48;100816.69;;;1.81;100.00
59825;BME280;45703;50.898;6.054;2024-03-07T05:06:13;100822.41;;;1.76;100.00
59825;BME280;45703;50.898;6.054;2024-03-07T05:08:38;100821.88;;;1.73;100.00
59825;BME280;45703;50.898;6.054;2024-03-07T05:11:04;100818.41;;;1.72;100.00
59825;BME280;45703;50.898;6.054;2024-03-07T05:13:29;100811.34;;;1.73;100.00
59825;BME280;45703;50.898;6.054;2024-03-07T05:15:56;100812.00;;;1.75;100.00
59825;BME280;45703;50.898;6.054;2024-03-07T05:18:22;100818.66;;;1.79;100.00
59825;BME280;45703;50.898;6.054;2024-03-07T05:20:48;100812.25;;;1.81;100.00
59825;BME280;45703;50.898;6.054;2024-03-07T05:23:14;100810.97;;;1.85;100.00
59825;BME280;45703;50.898;6.054;2024-03-07T05:25:39;100805.56;;;1.87;100.00
59825;BME280;45703;50.898;6.054;2024-03-07T05:28:05;100812.47;;;1.88;100.00
59825;BME280;45703;50.898;6.054;2024-03-07T05:30:30;100807.88;;;1.90;100.00
59825;BME280;45703;50.898;6.054;2024-03-07T05:32:57;100811.19;;;1.92;100.00
59825;BME280;45703;50.898;6.054;2024-03-07T05:35:24;100812.31;;;1.89;100.00
59825;BME280;45703;50.898;6.054;2024-03-07T05:37:49;100814.13;;;1.89;100.00
59825;BME280;45703;50.898;6.054;2024-03-07T05:40:15;100809.69;;;1.89;100.00
59825;BME280;45703;50.898;6.054;2024-03-07T05:42:41;100812.31;;;1.89;100.00
59825;BME280;45703;50.898;6.054;2024-03-07T05:45:07;100806.06;;;1.90;100.00
59825;BME280;45703;50.898;6.054;2024-03-07T05:47:33;100807.88;;;1.90;100.00
59825;BME280;45703;50.898;6.054;2024-03-07T05:49:58;100811.50;;;1.89;100.00
59825;BME280;45703;50.898;6.054;2024-03-07T05:52:24;100815.13;;;1.88;100.00
59825;BME280;45703;50.898;6.054;2024-03-07T05:54:49;100811.44;;;1.81;100.00
59825;BME280;45703;50.898;6.054;2024-03-07T05:57:15;100815.72;;;1.82;100.00
59825;BME280;45703;50.898;6.054;2024-03-07T05:59:40;100807.97;;;1.80;100.00
59825;BME280;45703;50.898;6.054;2024-03-07T06:02:05;100815.72;;;1.82;100.00
59825;BME280;45703;50.898;6.054;2024-03-07T06:04:31;100817.50;;;1.81;100.00
59825;BME280;45703;50.898;6.054;2024-03-07T06:06:57;100818.66;;;1.79;100.00
59825;BME280;45703;50.898;6.054;2024-03-07T06:09:23;100813.53;;;1.77;100.00
59825;BME280;45703;50.898;6.054;2024-03-07T06:11:49;100814.66;;;1.75;100.00
59825;BME280;45703;50.898;6.054;2024-03-07T06:14:14;100811.88;;;1.76;100.00
59825;BME280;45703;50.898;6.054;2024-03-07T06:16:41;100805.78;;;1.76;100.00
59825;BME280;45703;50.898;6.054;2024-03-07T06:19:07;100808.13;;;1.79;100.00
59825;BME280;45703;50.898;6.054;2024-03-07T06:21:34;100805.50;;;1.79;100.00
59825;BME280;45703;50.898;6.054;2024-03-07T06:24:01;100812.13;;;1.83;100.00
59825;BME280;45703;50.898;6.054;2024-03-07T06:26:29;100811.50;;;1.89;100.00
59825;BME280;45703;50.898;6.054;2024-03-07T06:29:11;100809.53;;;1.91;100.00
59825;BME280;45703;50.898;6.054;2024-03-07T06:31:39;100810.88;;;1.95;100.00
59825;BME280;45703;50.898;6.054;2024-03-07T06:34:06;100819.47;;;1.97;100.00
59825;BME280;45703;50.898;6.054;2024-03-07T06:36:33;100815.00;;;1.97;100.00
59825;BME280;45703;50.898;6.054;2024-03-07T06:38:59;100814.56;;;2.02;100.00
59825;BME280;45703;50.898;6.054;2024-03-07T06:41:24;100819.22;;;2.08;100.00
59825;BME280;45703;50.898;6.054;2024-03-07T06:43:50;100823.72;;;2.15;100.00
59825;BME280;45703;50.898;6.054;2024-03-07T06:46:18;100813.69;;;2.19;100.00
59825;BME280;45703;50.898;6.054;2024-03-07T06:48:45;100811.59;;;2.22;100.00
59825;BME280;45703;50.898;6.054;2024-03-07T06:51:10;100810.31;;;2.26;100.00
59825;BME280;45703;50.898;6.054;2024-03-07T06:53:36;100814.41;;;2.29;100.00
59825;BME280;45703;50.898;6.054;2024-03-07T06:56:01;100812.19;;;2.34;100.00
59825;BME280;45703;50.898;6.054;2024-03-07T06:58:27;100815.53;;;2.44;100.00
59825;BME280;45703;50.898;6.054;2024-03-07T07:00:53;100813.56;;;2.46;100.00
59825;BME280;45703;50.898;6.054;2024-03-07T07:03:23;100822.50;;;2.53;100.00
59825;BME280;45703;50.898;6.054;2024-03-07T07:05:50;100814.63;;;2.61;100.00
59825;BME280;45703;50.898;6.054;2024-03-07T07:08:15;100807.28;;;2.72;100.00
59825;BME280;45703;50.898;6.054;2024-03-07T07:10:41;100809.13;;;2.79;100.00
59825;BME280;45703;50.898;6.054;2024-03-07T07:13:11;100806.88;;;2.84;100.00
59825;BME280;45703;50.898;6.054;2024-03-07T07:15:36;100811.19;;;2.93;100.00
59825;BME280;45703;50.898;6.054;2024-03-07T07:18:03;100802.13;;;3.04;100.00
59825;BME280;45703;50.898;6.054;2024-03-07T07:20:29;100808.94;;;3.14;100.00
59825;BME280;45703;50.898;6.054;2024-03-07T07:22:55;100808.28;;;3.20;100.00
59825;BME280;45703;50.898;6.054;2024-03-07T07:25:22;100815.63;;;3.34;100.00
59825;BME280;45703;50.898;6.054;2024-03-07T07:27:50;100814.78;;;3.42;100.00
59825;BME280;45703;50.898;6.054;2024-03-07T07:30:20;100809.69;;;3.48;100.00
59825;BME280;45703;50.898;6.054;2024-03-07T07:32:51;100811.69;;;3.54;100.00
59825;BME280;45703;50.898;6.054;2024-03-07T07:35:16;100809.56;;;3.58;100.00
59825;BME280;45703;50.898;6.054;2024-03-07T07:37:44;100796.38;;;3.66;100.00
59825;BME280;45703;50.898;6.054;2024-03-07T07:40:12;100794.53;;;3.74;100.00
59825;BME280;45703;50.898;6.054;2024-03-07T07:42:47;100784.63;;;3.76;100.00
59825;BME280;45703;50.898;6.054;2024-03-07T07:45:14;100791.09;;;3.82;100.00
59825;BME280;45703;50.898;6.054;2024-03-07T07:47:43;100791.28;;;3.88;100.00
59825;BME280;45703;50.898;6.054;2024-03-07T07:50:18;100784.00;;;3.98;100.00
59825;BME280;45703;50.898;6.054;2024-03-07T07:52:48;100784.97;;;4.05;100.00
59825;BME280;45703;50.898;6.054;2024-03-07T07:55:16;100783.50;;;4.11;100.00
59825;BME280;45703;50.898;6.054;2024-03-07T07:58:07;100786.94;;;4.19;100.00
59825;BME280;45703;50.898;6.054;2024-03-07T08:00:33;100780.31;;;4.23;100.00
59825;BME280;45703;50.898;6.054;2024-03-07T08:03:06;100776.69;;;4.32;100.00
59825;BME280;45703;50.898;6.054;2024-03-07T08:05:33;100782.63;;;4.42;100.00
59825;BME280;45703;50.898;6.054;2024-03-07T08:08:01;100779.13;;;4.49;100.00
59825;BME280;45703;50.898;6.054;2024-03-07T08:10:32;100771.69;;;4.53;100.00
59825;BME280;45703;50.898;6.054;2024-03-07T08:12:58;100781.25;;;4.62;100.00
59825;BME280;45703;50.898;6.054;2024-03-07T08:15:28;100776.56;;;4.72;100.00
59825;BME280;45703;50.898;6.054;2024-03-07T08:17:55;100783.47;;;4.81;100.00
59825;BME280;45703;50.898;6.054;2024-03-07T08:20:22;100779.53;;;4.85;100.00
59825;BME280;45703;50.898;6.054;2024-03-07T08:22:49;100778.50;;;4.94;100.00
59825;BME280;45703;50.898;6.054;2024-03-07T08:25:19;100776.44;;;5.04;100.00
59825;BME280;45703;50.898;6.054;2024-03-07T08:27:47;100776.06;;;5.15;100.00
59825;BME280;45703;50.898;6.054;2024-03-07T08:30:13;100782.66;;;5.19;100.00
59825;BME280;45703;50.898;6.054;2024-03-07T08:32:43;100777.66;;;5.24;100.00
59825;BME280;45703;50.898;6.054;2024-03-07T08:35:09;100768.03;;;5.31;100.00
59825;BME280;45703;50.898;6.054;2024-03-07T08:37:36;100772.09;;;5.41;100.00
59825;BME280;45703;50.898;6.054;2024-03-07T08:40:02;100766.94;;;5.48;100.00
59825;BME280;45703;50.898;6.054;2024-03-07T08:42:35;100763.22;;;5.57;100.00
59825;BME280;45703;50.898;6.054;2024-03-07T08:45:02;100761.88;;;5.61;100.00
59825;BME280;45703;50.898;6.054;2024-03-07T08:47:34;100765.31;;;5.69;100.00
59825;BME280;45703;50.898;6.054;2024-03-07T08:50:00;100762.59;;;5.77;100.00
59825;BME280;45703;50.898;6.054;2024-03-07T08:52:26;100759.69;;;5.86;100.00
59825;BME280;45703;50.898;6.054;2024-03-07T08:54:53;100765.59;;;5.96;100.00
59825;BME280;45703;50.898;6.054;2024-03-07T08:57:19;100765.16;;;6.07;100.00
59825;BME280;45703;50.898;6.054;2024-03-07T08:59:46;100770.38;;;6.15;100.00
59825;BME280;45703;50.898;6.054;2024-03-07T09:02:12;100763.00;;;6.25;100.00
59825;BME280;45703;50.898;6.054;2024-03-07T09:04:38;100766.16;;;6.43;100.00
59825;BME280;45703;50.898;6.054;2024-03-07T09:07:04;100758.75;;;6.53;100.00
59825;BME280;45703;50.898;6.054;2024-03-07T09:09:34;100748.94;;;6.68;100.00
59825;BME280;45703;50.898;6.054;2024-03-07T09:12:03;100748.66;;;6.78;100.00
59825;BME280;45703;50.898;6.054;2024-03-07T09:14:29;100746.38;;;6.89;100.00
59825;BME280;45703;50.898;6.054;2024-03-07T09:16:54;100751.59;;;6.97;100.00
59825;BME280;45703;50.898;6.054;2024-03-07T09:19:20;100747.34;;;7.03;100.00
59825;BME280;45703;50.898;6.054;2024-03-07T09:21:50;100741.13;;;7.10;100.00
59825;BME280;45703;50.898;6.054;2024-03-07T09:24:15;100747.31;;;7.17;100.00
59825;BME280;45703;50.898;6.054;2024-03-07T09:26:41;100748.97;;;7.18;100.00
59825;BME280;45703;50.898;6.054;2024-03-07T09:29:07;100732.03;;;7.19;100.00
59825;BME280;45703;50.898;6.054;2024-03-07T09:31:33;100740.63;;;7.21;100.00
59825;BME280;45703;50.898;6.054;2024-03-07T09:33:58;100730.00;;;7.21;100.00
59825;BME280;45703;50.898;6.054;2024-03-07T09:36:24;100730.47;;;7.24;100.00
59825;BME280;45703;50.898;6.054;2024-03-07T09:38:50;100730.25;;;7.26;100.00
59825;BME280;45703;50.898;6.054;2024-03-07T09:41:15;100734.56;;;7.27;100.00
59825;BME280;45703;50.898;6.054;2024-03-07T09:43:43;100738.69;;;7.29;100.00
59825;BME280;45703;50.898;6.054;2024-03-07T09:46:09;100734.19;;;7.30;100.00
59825;BME280;45703;50.898;6.054;2024-03-07T09:48:35;100729.03;;;7.43;100.00
59825;BME280;45703;50.898;6.054;2024-03-07T09:51:02;100732.69;;;7.42;100.00
59825;BME280;45703;50.898;6.054;2024-03-07T09:53:29;100727.25;;;7.50;100.00
59825;BME280;45703;50.898;6.054;2024-03-07T09:55:56;100719.53;;;7.55;100.00
59825;BME280;45703;50.898;6.054;2024-03-07T09:58:25;100726.25;;;7.51;100.00
59825;BME280;45703;50.898;6.054;2024-03-07T10:00:54;100726.88;;;7.53;100.00
59825;BME280;45703;50.898;6.054;2024-03-07T10:03:22;100726.88;;;7.53;100.00
59825;BME280;45703;50.898;6.054;2024-03-07T10:05:53;100723.84;;;7.56;100.00
59825;BME280;45703;50.898;6.054;2024-03-07T10:08:19;100721.03;;;7.64;100.00
59825;BME280;45703;50.898;6.054;2024-03-07T10:10:45;100728.25;;;7.70;100.00
59825;BME280;45703;50.898;6.054;2024-03-07T10:13:12;100721.16;;;7.77;100.00
59825;BME280;45703;50.898;6.054;2024-03-07T10:15:38;100720.13;;;7.78;100.00
59825;BME280;45703;50.898;6.054;2024-03-07T10:18:07;100725.94;;;7.88;100.00
59825;BME280;45703;50.898;6.054;2024-03-07T10:20:36;100726.66;;;7.96;100.00
59825;BME280;45703;50.898;6.054;2024-03-07T10:23:03;100717.31;;;8.07;100.00
59825;BME280;45703;50.898;6.054;2024-03-07T10:25:28;100708.19;;;8.16;100.00
59825;BME280;45703;50.898;6.054;2024-03-07T10:27:54;100714.63;;;8.28;100.00
59825;BME280;45703;50.898;6.054;2024-03-07T10:30:20;100715.09;;;8.38;100.00
59825;BME280;45703;50.898;6.054;2024-03-07T10:32:58;100716.63;;;8.53;100.00
59825;BME280;45703;50.898;6.054;2024-03-07T10:35:24;100702.19;;;8.68;100.00
59825;BME280;45703;50.898;6.054;2024-03-07T10:37:53;100700.84;;;8.92;100.00
59825;BME280;45703;50.898;6.054;2024-03-07T10:40:20;100701.94;;;9.10;100.00
59825;BME280;45703;50.898;6.054;2024-03-07T10:42:47;100702.81;;;9.24;100.00
59825;BME280;45703;50.898;6.054;2024-03-07T10:45:21;100694.63;;;9.38;100.00
59825;BME280;45703;50.898;6.054;2024-03-07T10:47:58;100701.22;;;9.55;100.00
59825;BME280;45703;50.898;6.054;2024-03-07T10:54:01;100702.47;;;9.92;100.00
59825;BME280;45703;50.898;6.054;2024-03-07T10:56:58;100687.28;;;9.92;100.00
59825;BME280;45703;50.898;6.054;2024-03-07T10:59:26;100689.78;;;10.13;100.00
59825;BME280;45703;50.898;6.054;2024-03-07T11:04:41;100676.63;;;10.24;100.00
59825;BME280;45703;50.898;6.054;2024-03-07T11:07:08;100689.13;;;10.24;100.00
59825;BME280;45703;50.898;6.054;2024-03-07T11:09:36;100681.13;;;10.24;100.00
59825;BME280;45703;50.898;6.054;2024-03-07T11:12:02;100671.91;;;10.26;100.00
59825;BME280;45703;50.898;6.054;2024-03-07T11:14:29;100675.19;;;10.22;100.00
59825;BME280;45703;50.898;6.054;2024-03-07T11:16:55;100678.69;;;10.16;100.00
59825;BME280;45703;50.898;6.054;2024-03-07T11:19:28;100668.63;;;10.11;100.00
59825;BME280;45703;50.898;6.054;2024-03-07T11:21:55;100669.19;;;10.33;100.00
59825;BME280;45703;50.898;6.054;2024-03-07T11:24:31;100658.47;;;10.46;100.00
59825;BME280;45703;50.898;6.054;2024-03-07T11:27:03;100655.31;;;10.75;100.00
59825;BME280;45703;50.898;6.054;2024-03-07T11:29:48;100657.25;;;10.99;100.00
59825;BME280;45703;50.898;6.054;2024-03-07T11:32:23;100656.94;;;11.20;100.00
59825;BME280;45703;50.898;6.054;2024-03-07T11:34:49;100651.66;;;11.38;100.00
59825;BME280;45703;50.898;6.054;2024-03-07T11:37:19;100651.38;;;11.45;100.00
59825;BME280;45703;50.898;6.054;2024-03-07T11:39:48;100655.19;;;11.32;100.00
59825;BME280;45703;50.898;6.054;2024-03-07T11:42:30;100649.22;;;11.36;100.00
59825;BME280;45703;50.898;6.054;2024-03-07T11:45:00;100638.69;;;11.41;100.00
59825;BME280;45703;50.898;6.054;2024-03-07T11:47:36;100645.28;;;11.39;100.00
59825;BME280;45703;50.898;6.054;2024-03-07T11:50:06;100647.41;;;11.30;100.00
59825;BME280;45703;50.898;6.054;2024-03-07T11:52:36;100644.78;;;11.17;100.00
59825;BME280;45703;50.898;6.054;2024-03-07T11:55:04;100644.25;;;11.09;100.00
59825;BME280;45703;50.898;6.054;2024-03-07T11:57:30;100631.56;;;10.98;100.00
59825;BME280;45703;50.898;6.054;2024-03-07T11:59:59;100631.63;;;10.85;100.00
59825;BME280;45703;50.898;6.054;2024-03-07T12:02:27;100621.09;;;10.59;100.00
59825;BME280;45703;50.898;6.054;2024-03-07T12:04:52;100626.06;;;10.42;100.00
59825;BME280;45703;50.898;6.054;2024-03-07T12:07:18;100611.38;;;10.20;100.00
59825;BME280;45703;50.898;6.054;2024-03-07T12:09:44;100605.25;;;10.07;100.00
59825;BME280;45703;50.898;6.054;2024-03-07T12:12:15;100605.84;;;9.96;100.00
59825;BME280;45703;50.898;6.054;2024-03-07T12:14:42;100598.47;;;9.92;100.00
59825;BME280;45703;50.898;6.054;2024-03-07T12:17:08;100590.03;;;9.88;100.00
59825;BME280;45703;50.898;6.054;2024-03-07T12:19:34;100591.50;;;9.91;100.00
59825;BME280;45703;50.898;6.054;2024-03-07T12:22:01;100589.44;;;9.99;100.00
59825;BME280;45703;50.898;6.054;2024-03-07T12:24:27;100581.03;;;10.02;100.00
59825;BME280;45703;50.898;6.054;2024-03-07T12:27:12;100581.22;;;10.07;100.00
59825;BME280;45703;50.898;6.054;2024-03-07T12:29:42;100574.25;;;10.06;100.00
59825;BME280;45703;50.898;6.054;2024-03-07T12:32:09;100575.06;;;10.06;100.00
59825;BME280;45703;50.898;6.054;2024-03-07T12:34:39;100570.97;;;10.04;100.00
59825;BME280;45703;50.898;6.054;2024-03-07T12:37:07;100570.56;;;10.07;100.00
59825;BME280;45703;50.898;6.054;2024-03-07T12:39:33;100564.63;;;10.05;100.00
59825;BME280;45703;50.898;6.054;2024-03-07T12:42:05;100557.22;;;9.94;100.00
59825;BME280;45703;50.898;6.054;2024-03-07T12:44:43;100549.84;;;9.96;100.00
59825;BME280;45703;50.898;6.054;2024-03-07T12:47:16;100555.19;;;9.96;100.00
59825;BME280;45703;50.898;6.054;2024-03-07T12:49:42;100549.44;;;9.99;100.00
59825;BME280;45703;50.898;6.054;2024-03-07T12:52:08;100544.09;;;10.05;100.00
59825;BME280;45703;50.898;6.054;2024-03-07T12:54:35;100546.50;;;10.20;100.00